sensor_id;sensor_type;location;lat;lon;timestamp;pressure;altitude;pressure_sealevel;temperature;humidity
63500;BME280;49654;51.142;14.924;2023-04-07T00:01:50;99437.84;;;1.51;71.40
63500;BME280;49654;51.142;14.924;2023-04-07T00:04:17;99429.22;;;1.52;70.70
63500;BME280;49654;51.142;14.924;2023-04-07T00:06:45;99296.56;;;0.75;70.00
63500;BME280;49654;51.142;14.924;2023-04-07T00:09:12;99417.13;;;1.54;69.97
63500;BME280;49654;51.142;14.924;2023-04-07T00:11:39;99407.34;;;1.48;70.35
63500;BME280;49654;51.142;14.924;2023-04-07T00:14:06;99434.97;;;1.67;69.28
63500;BME280;49654;51.142;14.924;2023-04-07T00:16:33;99391.50;;;1.43;69.31
63500;BME280;49654;51.142;14.924;2023-04-07T00:19:00;99429.03;;;1.66;69.82
63500;BME280;49654;51.142;14.924;2023-04-07T00:21:27;99428.56;;;1.61;69.50
63500;BME280;49654;51.142;14.924;2023-04-07T00:23:55;99430.91;;;1.64;69.89
63500;BME280;49654;51.142;14.924;2023-04-07T00:26:22;99427.34;;;1.54;70.31
63500;BME280;49654;51.142;14.924;2023-04-07T00:28:50;99412.72;;;1.56;69.79
63500;BME280;49654;51.142;14.924;2023-04-07T00:31:17;99405.63;;;1.60;69.50
63500;BME280;49654;51.142;14.924;2023-04-07T00:33:44;99411.44;;;1.62;68.98
63500;BME280;49654;51.142;14.924;2023-04-07T00:36:13;99407.59;;;1.56;68.62
63500;BME280;49654;51.142;14.924;2023-04-07T00:38:40;99335.53;;;1.03;69.02
63500;BME280;49654;51.142;14.924;2023-04-07T00:41:08;99422.97;;;1.56;69.99
63500;BME280;49654;51.142;14.924;2023-04-07T00:43:35;99412.25;;;1.51;70.28
63500;BME280;49654;51.142;14.924;2023-04-07T00:46:02;99407.19;;;1.38;70.94
63500;BME280;49654;51.142;14.924;2023-04-07T00:48:29;99394.66;;;1.46;71.20
63500;BME280;49654;51.142;14.924;2023-04-07T00:50:56;99387.31;;;1.42;71.49
63500;BME280;49654;51.142;14.924;2023-04-07T00:53:23;99366.66;;;1.32;71.49
63500;BME280;49654;51.142;14.924;2023-04-07T00:55:50;99346.25;;;1.43;69.98
63500;BME280;49654;51.142;14.924;2023-04-07T00:58:18;99385.16;;;1.60;70.09
63500;BME280;49654;51.142;14.924;2023-04-07T01:00:48;99393.91;;;1.68;70.07
63500;BME280;49654;51.142;14.924;2023-04-07T01:03:19;99396.34;;;1.59;70.39
63500;BME280;49654;51.142;14.924;2023-04-07T01:05:54;99379.63;;;1.77;70.49
63500;BME280;49654;51.142;14.924;2023-04-07T01:08:27;99381.13;;;1.80;69.93
63500;BME280;49654;51.142;14.924;2023-04-07T01:11:02;99382.19;;;1.77;70.23
63500;BME280;49654;51.142;14.924;2023-04-07T01:13:35;99395.06;;;1.64;70.84
63500;BME280;49654;51.142;14.924;2023-04-07T01:16:04;99375.09;;;1.81;71.18
63500;BME280;49654;51.142;14.924;2023-04-07T01:18:36;99388.72;;;1.81;71.24
63500;BME280;49654;51.142;14.924;2023-04-07T01:21:08;99378.00;;;1.87;71.35
63500;BME280;49654;51.142;14.924;2023-04-07T01:24:02;99373.59;;;1.89;71.52
63500;BME280;49654;51.142;14.924;2023-04-07T01:26:32;99379.78;;;1.98;71.56
63500;BME280;49654;51.142;14.924;2023-04-07T01:29:24;99380.72;;;2.08;71.94
63500;BME280;49654;51.142;14.924;2023-04-07T01:31:53;99361.38;;;2.04;71.50
63500;BME280;49654;51.142;14.924;2023-04-07T01:34:22;99332.16;;;1.84;71.06
63500;BME280;49654;51.142;14.924;2023-04-07T01:36:52;99378.50;;;2.26;71.35
63500;BME280;49654;51.142;14.924;2023-04-07T01:39:20;99357.09;;;2.27;70.87
63500;BME280;49654;51.142;14.924;2023-04-07T01:41:48;99377.81;;;2.58;70.14
63500;BME280;49654;51.142;14.924;2023-04-07T01:44:16;99374.66;;;2.54;69.62
63500;BME280;49654;51.142;14.924;2023-04-07T01:46:44;99380.97;;;2.50;69.66
63500;BME280;49654;51.142;14.924;2023-04-07T01:49:12;99331.34;;;2.29;69.47
63500;BME280;49654;51.142;14.924;2023-04-07T01:51:40;99370.13;;;2.46;69.74
63500;BME280;49654;51.142;14.924;2023-04-07T01:54:08;99368.38;;;2.58;69.38
63500;BME280;49654;51.142;14.924;2023-04-07T01:56:35;99372.09;;;2.54;69.24
63500;BME280;49654;51.142;14.924;2023-04-07T01:59:02;99371.06;;;2.45;69.48
63500;BME280;49654;51.142;14.924;2023-04-07T02:01:29;99373.72;;;2.44;69.96
63500;BME280;49654;51.142;14.924;2023-04-07T02:04:02;99335.06;;;2.24;70.01
63500;BME280;49654;51.142;14.924;2023-04-07T02:06:36;99366.03;;;2.44;70.15
63500;BME280;49654;51.142;14.924;2023-04-07T02:09:06;99364.75;;;2.38;70.04
63500;BME280;49654;51.142;14.924;2023-04-07T02:11:36;99350.44;;;2.36;70.43
63500;BME280;49654;51.142;14.924;2023-04-07T02:14:05;99360.69;;;2.47;70.61
63500;BME280;49654;51.142;14.924;2023-04-07T02:16:33;99338.69;;;2.44;70.16
63500;BME280;49654;51.142;14.924;2023-04-07T02:19:02;99352.63;;;2.51;70.00
63500;BME280;49654;51.142;14.924;2023-04-07T02:21:30;99346.34;;;2.56;70.26
63500;BME280;49654;51.142;14.924;2023-04-07T02:23:59;99334.59;;;2.53;70.18
63500;BME280;49654;51.142;14.924;2023-04-07T02:26:26;99342.81;;;2.68;70.04
63500;BME280;49654;51.142;14.924;2023-04-07T02:28:53;99340.75;;;2.50;69.99
63500;BME280;49654;51.142;14.924;2023-04-07T02:31:20;99312.00;;;2.36;70.29
63500;BME280;49654;51.142;14.924;2023-04-07T02:33:47;99342.63;;;2.37;70.44
63500;BME280;49654;51.142;14.924;2023-04-07T02:36:15;99348.00;;;2.23;70.53
63500;BME280;49654;51.142;14.924;2023-04-07T02:38:42;99307.34;;;2.07;71.17
63500;BME280;49654;51.142;14.924;2023-04-07T02:41:09;99350.19;;;2.39;71.17
63500;BME280;49654;51.142;14.924;2023-04-07T02:43:36;99334.25;;;2.13;71.24
63500;BME280;49654;51.142;14.924;2023-04-07T02:46:03;99321.66;;;2.10;71.23
63500;BME280;49654;51.142;14.924;2023-04-07T02:48:30;99340.66;;;2.18;71.80
63500;BME280;49654;51.142;14.924;2023-04-07T02:50:57;99346.22;;;2.35;71.72
63500;BME280;49654;51.142;14.924;2023-04-07T02:53:25;99330.63;;;2.38;71.45
63500;BME280;49654;51.142;14.924;2023-04-07T02:55:52;99337.50;;;2.48;70.83
63500;BME280;49654;51.142;14.924;2023-04-07T02:58:20;99322.00;;;2.39;70.97
63500;BME280;49654;51.142;14.924;2023-04-07T03:00:47;99296.31;;;2.07;70.78
63500;BME280;49654;51.142;14.924;2023-04-07T03:03:14;99336.69;;;2.03;71.14
63500;BME280;49654;51.142;14.924;2023-04-07T03:05:41;99186.53;;;1.12;71.96
63500;BME280;49654;51.142;14.924;2023-04-07T03:08:07;99332.41;;;2.15;72.40
63500;BME280;49654;51.142;14.924;2023-04-07T03:10:36;99335.75;;;2.04;71.94
63500;BME280;49654;51.142;14.924;2023-04-07T03:13:03;99329.47;;;1.86;72.17
63500;BME280;49654;51.142;14.924;2023-04-07T03:15:30;99321.28;;;1.69;72.72
63500;BME280;49654;51.142;14.924;2023-04-07T03:17:56;99324.78;;;1.68;72.96
63500;BME280;49654;51.142;14.924;2023-04-07T03:20:23;99322.56;;;1.75;73.29
63500;BME280;49654;51.142;14.924;2023-04-07T03:22:50;99323.97;;;1.79;73.52
63500;BME280;49654;51.142;14.924;2023-04-07T03:25:17;99322.22;;;1.80;73.70
63500;BME280;49654;51.142;14.924;2023-04-07T03:27:45;99316.09;;;1.93;72.52
63500;BME280;49654;51.142;14.924;2023-04-07T03:30:12;99319.34;;;1.95;72.06
63500;BME280;49654;51.142;14.924;2023-04-07T03:32:40;99317.72;;;1.94;72.37
63500;BME280;49654;51.142;14.924;2023-04-07T03:35:07;99313.19;;;1.98;72.37
63500;BME280;49654;51.142;14.924;2023-04-07T03:37:34;99314.47;;;2.04;72.48
63500;BME280;49654;51.142;14.924;2023-04-07T03:40:01;99289.19;;;1.88;72.87
63500;BME280;49654;51.142;14.924;2023-04-07T03:42:28;99307.59;;;2.04;72.86
63500;BME280;49654;51.142;14.924;2023-04-07T03:44:57;99316.09;;;1.93;72.92
63500;BME280;49654;51.142;14.924;2023-04-07T03:47:23;99274.84;;;1.52;73.08
63500;BME280;49654;51.142;14.924;2023-04-07T03:49:50;99279.66;;;1.67;73.55
63500;BME280;49654;51.142;14.924;2023-04-07T03:52:17;99301.97;;;1.88;73.58
63500;BME280;49654;51.142;14.924;2023-04-07T03:54:44;99275.22;;;1.69;73.16
63500;BME280;49654;51.142;14.924;2023-04-07T03:57:11;99299.66;;;1.96;73.03
63500;BME280;49654;51.142;14.924;2023-04-07T03:59:38;99321.31;;;2.03;73.53
63500;BME280;49654;51.142;14.924;2023-04-07T04:02:07;99301.28;;;1.97;73.33
63500;BME280;49654;51.142;14.924;2023-04-07T04:04:34;99310.59;;;2.09;73.48
63500;BME280;49654;51.142;14.924;2023-04-07T04:07:01;99318.44;;;2.19;73.10
63500;BME280;49654;51.142;14.924;2023-04-07T04:09:27;99318.16;;;2.22;72.56
63500;BME280;49654;51.142;14.924;2023-04-07T04:11:55;99312.00;;;2.13;72.83
63500;BME280;49654;51.142;14.924;2023-04-07T04:14:22;99322.47;;;2.21;72.49
63500;BME280;49654;51.142;14.924;2023-04-07T04:16:49;99323.41;;;2.43;71.49
63500;BME280;49654;51.142;14.924;2023-04-07T04:19:17;99327.38;;;2.36;71.73
63500;BME280;49654;51.142;14.924;2023-04-07T04:21:44;99329.22;;;2.34;71.10
63500;BME280;49654;51.142;14.924;2023-04-07T04:24:11;99329.94;;;2.36;70.76
63500;BME280;49654;51.142;14.924;2023-04-07T04:26:38;99331.34;;;2.29;70.53
63500;BME280;49654;51.142;14.924;2023-04-07T04:29:05;99333.91;;;2.17;71.04
63500;BME280;49654;51.142;14.924;2023-04-07T04:31:32;99325.06;;;2.10;71.53
63500;BME280;49654;51.142;14.924;2023-04-07T04:33:59;99326.78;;;2.10;72.16
63500;BME280;49654;51.142;14.924;2023-04-07T04:36:27;99329.72;;;2.28;72.41
63500;BME280;49654;51.142;14.924;2023-04-07T04:38:54;99310.72;;;2.30;72.28
63500;BME280;49654;51.142;14.924;2023-04-07T04:41:21;99322.09;;;2.60;72.07
63500;BME280;49654;51.142;14.924;2023-04-07T04:43:47;99326.84;;;2.75;71.16
63500;BME280;49654;51.142;14.924;2023-04-07T04:46:15;99323.91;;;2.91;70.46
63500;BME280;49654;51.142;14.924;2023-04-07T04:48:42;99322.06;;;3.03;70.08
63500;BME280;49654;51.142;14.924;2023-04-07T04:51:10;99316.66;;;2.85;69.46
63500;BME280;49654;51.142;14.924;2023-04-07T04:53:38;99317.25;;;2.89;70.39
63500;BME280;49654;51.142;14.924;2023-04-07T04:56:05;99322.88;;;3.04;69.47
63500;BME280;49654;51.142;14.924;2023-04-07T04:58:33;99324.19;;;2.98;70.11
63500;BME280;49654;51.142;14.924;2023-04-07T05:01:00;99285.13;;;3.06;69.75
63500;BME280;49654;51.142;14.924;2023-04-07T05:03:27;99315.63;;;3.62;68.92
63500;BME280;49654;51.142;14.924;2023-04-07T05:05:54;99313.66;;;3.75;68.03
63500;BME280;49654;51.142;14.924;2023-04-07T05:08:21;99324.22;;;4.03;67.56
63500;BME280;49654;51.142;14.924;2023-04-07T05:10:49;99324.50;;;4.09;67.28
63500;BME280;49654;51.142;14.924;2023-04-07T05:13:16;99331.25;;;4.10;67.77
63500;BME280;49654;51.142;14.924;2023-04-07T05:15:43;99310.28;;;4.05;67.26
63500;BME280;49654;51.142;14.924;2023-04-07T05:18:09;99308.25;;;3.99;67.30
63500;BME280;49654;51.142;14.924;2023-04-07T05:20:37;99327.53;;;3.93;67.72
63500;BME280;49654;51.142;14.924;2023-04-07T05:23:04;99312.84;;;3.74;68.24
63500;BME280;49654;51.142;14.924;2023-04-07T05:25:31;99324.56;;;3.98;68.75
63500;BME280;49654;51.142;14.924;2023-04-07T05:27:59;99287.31;;;3.52;68.68
63500;BME280;49654;51.142;14.924;2023-04-07T05:30:26;99336.72;;;4.17;68.58
63500;BME280;49654;51.142;14.924;2023-04-07T05:32:53;99331.78;;;4.44;67.81
63500;BME280;49654;51.142;14.924;2023-04-07T05:35:20;99329.38;;;4.43;67.12
63500;BME280;49654;51.142;14.924;2023-04-07T05:37:46;99327.53;;;4.64;67.67
63500;BME280;49654;51.142;14.924;2023-04-07T05:40:14;99344.47;;;4.96;67.36
63500;BME280;49654;51.142;14.924;2023-04-07T05:42:41;99333.13;;;5.27;65.89
63500;BME280;49654;51.142;14.924;2023-04-07T05:45:10;99331.88;;;5.51;65.57
63500;BME280;49654;51.142;14.924;2023-04-07T05:47:37;99331.56;;;5.73;64.88
63500;BME280;49654;51.142;14.924;2023-04-07T05:50:04;99331.13;;;5.88;64.03
63500;BME280;49654;51.142;14.924;2023-04-07T05:52:31;99318.50;;;6.04;62.56
63500;BME280;49654;51.142;14.924;2023-04-07T05:54:58;99321.88;;;6.05;61.66
63500;BME280;49654;51.142;14.924;2023-04-07T05:57:26;99327.38;;;6.19;59.26
63500;BME280;49654;51.142;14.924;2023-04-07T05:59:53;99320.38;;;6.02;59.02
63500;BME280;49654;51.142;14.924;2023-04-07T06:02:21;99324.81;;;6.19;59.08
63500;BME280;49654;51.142;14.924;2023-04-07T06:04:48;99276.28;;;6.05;59.68
63500;BME280;49654;51.142;14.924;2023-04-07T06:07:15;99332.06;;;6.61;59.82
63500;BME280;49654;51.142;14.924;2023-04-07T06:09:42;99334.47;;;6.90;59.23
63500;BME280;49654;51.142;14.924;2023-04-07T06:12:09;99335.00;;;6.94;56.82
63500;BME280;49654;51.142;14.924;2023-04-07T06:14:37;99336.97;;;7.00;56.15
63500;BME280;49654;51.142;14.924;2023-04-07T06:17:03;99338.75;;;7.17;56.37
63500;BME280;49654;51.142;14.924;2023-04-07T06:19:32;99334.38;;;7.36;53.72
63500;BME280;49654;51.142;14.924;2023-04-07T06:21:59;99328.28;;;7.45;52.46
63500;BME280;49654;51.142;14.924;2023-04-07T06:24:26;99277.72;;;7.16;52.26
63500;BME280;49654;51.142;14.924;2023-04-07T06:26:53;99321.38;;;7.45;52.81
63500;BME280;49654;51.142;14.924;2023-04-07T06:29:20;99332.19;;;7.49;53.03
63500;BME280;49654;51.142;14.924;2023-04-07T06:31:47;99329.44;;;7.68;53.79
63500;BME280;49654;51.142;14.924;2023-04-07T06:34:14;99319.81;;;7.78;53.70
63500;BME280;49654;51.142;14.924;2023-04-07T06:36:43;99327.22;;;7.73;53.46
63500;BME280;49654;51.142;14.924;2023-04-07T06:39:10;99227.13;;;7.32;53.63
63500;BME280;49654;51.142;14.924;2023-04-07T06:41:37;99264.72;;;7.78;52.97
63500;BME280;49654;51.142;14.924;2023-04-07T06:44:08;99326.69;;;8.30;52.86
63500;BME280;49654;51.142;14.924;2023-04-07T06:46:35;99322.31;;;8.31;52.72
63500;BME280;49654;51.142;14.924;2023-04-07T06:49:02;99324.53;;;8.51;53.01
63500;BME280;49654;51.142;14.924;2023-04-07T06:51:29;99326.66;;;8.64;52.97
63500;BME280;49654;51.142;14.924;2023-04-07T06:53:58;99322.81;;;8.76;52.82
63500;BME280;49654;51.142;14.924;2023-04-07T06:56:25;99318.41;;;8.61;53.31
63500;BME280;49654;51.142;14.924;2023-04-07T06:58:52;99317.94;;;8.73;53.42
63500;BME280;49654;51.142;14.924;2023-04-07T07:01:19;99342.41;;;8.79;53.27
63500;BME280;49654;51.142;14.924;2023-04-07T07:03:45;99309.00;;;8.51;53.75
63500;BME280;49654;51.142;14.924;2023-04-07T07:06:12;99326.00;;;8.54;53.66
63500;BME280;49654;51.142;14.924;2023-04-07T07:08:40;99342.03;;;8.58;51.17
63500;BME280;49654;51.142;14.924;2023-04-07T07:11:08;99328.75;;;8.52;52.91
63500;BME280;49654;51.142;14.924;2023-04-07T07:13:35;99334.13;;;8.67;50.60
63500;BME280;49654;51.142;14.924;2023-04-07T07:16:03;99325.53;;;8.59;49.07
63500;BME280;49654;51.142;14.924;2023-04-07T07:18:30;99304.63;;;8.44;48.36
63500;BME280;49654;51.142;14.924;2023-04-07T07:20:57;99343.41;;;8.78;48.27
63500;BME280;49654;51.142;14.924;2023-04-07T07:23:23;99338.22;;;8.86;48.03
63500;BME280;49654;51.142;14.924;2023-04-07T07:25:50;99320.63;;;8.05;48.29
63500;BME280;49654;51.142;14.924;2023-04-07T07:28:18;99340.81;;;8.36;49.16
63500;BME280;49654;51.142;14.924;2023-04-07T07:30:46;99342.47;;;8.45;48.02
63500;BME280;49654;51.142;14.924;2023-04-07T07:33:13;99346.41;;;8.57;47.94
63500;BME280;49654;51.142;14.924;2023-04-07T07:35:40;99346.75;;;8.62;47.42
63500;BME280;49654;51.142;14.924;2023-04-07T07:38:07;99346.03;;;8.52;47.49
63500;BME280;49654;51.142;14.924;2023-04-07T07:40:34;99344.19;;;8.70;46.65
63500;BME280;49654;51.142;14.924;2023-04-07T07:43:01;99344.75;;;8.48;48.04
63500;BME280;49654;51.142;14.924;2023-04-07T07:45:29;99342.28;;;8.89;47.49
63500;BME280;49654;51.142;14.924;2023-04-07T07:47:56;99352.66;;;9.05;46.47
63500;BME280;49654;51.142;14.924;2023-04-07T07:50:23;99360.72;;;8.86;46.42
63500;BME280;49654;51.142;14.924;2023-04-07T07:52:50;99346.69;;;9.05;47.58
63500;BME280;49654;51.142;14.924;2023-04-07T07:55:17;99356.56;;;9.09;47.11
63500;BME280;49654;51.142;14.924;2023-04-07T07:57:44;99357.06;;;9.21;46.17
63500;BME280;49654;51.142;14.924;2023-04-07T08:00:12;99337.78;;;9.15;46.24
63500;BME280;49654;51.142;14.924;2023-04-07T08:02:40;99347.84;;;9.35;46.40
63500;BME280;49654;51.142;14.924;2023-04-07T08:05:07;99355.91;;;9.32;45.80
63500;BME280;49654;51.142;14.924;2023-04-07T08:07:34;99354.38;;;8.80;46.33
63500;BME280;49654;51.142;14.924;2023-04-07T08:10:01;99350.31;;;8.61;46.34
63500;BME280;49654;51.142;14.924;2023-04-07T08:12:28;99358.09;;;8.69;47.33
63500;BME280;49654;51.142;14.924;2023-04-07T08:14:55;99314.06;;;8.77;46.45
63500;BME280;49654;51.142;14.924;2023-04-07T08:17:22;99337.94;;;9.06;46.37
63500;BME280;49654;51.142;14.924;2023-04-07T08:19:50;99363.38;;;9.43;46.03
63500;BME280;49654;51.142;14.924;2023-04-07T08:22:17;99359.78;;;9.19;46.21
63500;BME280;49654;51.142;14.924;2023-04-07T08:24:45;99361.25;;;9.14;46.02
63500;BME280;49654;51.142;14.924;2023-04-07T08:27:13;99361.44;;;9.53;46.27
63500;BME280;49654;51.142;14.924;2023-04-07T08:29:40;99356.88;;;9.79;45.93
63500;BME280;49654;51.142;14.924;2023-04-07T08:32:06;99370.50;;;9.57;45.71
63500;BME280;49654;51.142;14.924;2023-04-07T08:34:33;99361.91;;;9.32;45.83
63500;BME280;49654;51.142;14.924;2023-04-07T08:37:02;99362.22;;;9.70;45.25
63500;BME280;49654;51.142;14.924;2023-04-07T08:39:28;99359.63;;;9.94;45.04
63500;BME280;49654;51.142;14.924;2023-04-07T08:41:56;99350.28;;;10.33;44.83
63500;BME280;49654;51.142;14.924;2023-04-07T08:44:24;99354.94;;;10.76;44.11
63500;BME280;49654;51.142;14.924;2023-04-07T08:46:53;99350.56;;;11.00;42.90
63500;BME280;49654;51.142;14.924;2023-04-07T08:49:23;99350.59;;;11.23;42.88
63500;BME280;49654;51.142;14.924;2023-04-07T08:51:55;99350.59;;;11.23;41.60
63500;BME280;49654;51.142;14.924;2023-04-07T08:54:27;99353.09;;;10.62;42.42
63500;BME280;49654;51.142;14.924;2023-04-07T08:56:54;99344.38;;;10.78;42.83
63500;BME280;49654;51.142;14.924;2023-04-07T08:59:21;99347.88;;;11.16;42.06
63500;BME280;49654;51.142;14.924;2023-04-07T09:01:51;99326.28;;;10.93;42.84
63500;BME280;49654;51.142;14.924;2023-04-07T09:04:18;99348.84;;;11.15;42.44
63500;BME280;49654;51.142;14.924;2023-04-07T09:06:45;99351.94;;;11.19;42.23
63500;BME280;49654;51.142;14.924;2023-04-07T09:09:12;99295.41;;;11.13;42.82
63500;BME280;49654;51.142;14.924;2023-04-07T09:11:40;99337.53;;;11.08;42.88
63500;BME280;49654;51.142;14.924;2023-04-07T09:14:07;99341.22;;;11.37;42.41
63500;BME280;49654;51.142;14.924;2023-04-07T09:16:34;99340.09;;;11.92;42.83
63500;BME280;49654;51.142;14.924;2023-04-07T09:19:01;99320.63;;;12.17;40.35
63500;BME280;49654;51.142;14.924;2023-04-07T09:21:47;99333.72;;;12.39;41.02
63500;BME280;49654;51.142;14.924;2023-04-07T09:24:21;99345.38;;;12.28;39.02
63500;BME280;49654;51.142;14.924;2023-04-07T09:26:53;99266.56;;;12.19;41.00
63500;BME280;49654;51.142;14.924;2023-04-07T09:29:33;99341.53;;;13.33;39.07
63500;BME280;49654;51.142;14.924;2023-04-07T09:32:00;99316.41;;;13.53;37.58
63500;BME280;49654;51.142;14.924;2023-04-07T09:34:28;99310.75;;;13.77;37.24
63500;BME280;49654;51.142;14.924;2023-04-07T09:36:56;99303.56;;;13.80;37.38
63500;BME280;49654;51.142;14.924;2023-04-07T09:39:23;99314.66;;;13.88;36.90
63500;BME280;49654;51.142;14.924;2023-04-07T09:41:52;99316.31;;;13.68;36.40
63500;BME280;49654;51.142;14.924;2023-04-07T09:44:20;99324.00;;;13.48;36.66
63500;BME280;49654;51.142;14.924;2023-04-07T09:46:49;99329.28;;;13.12;38.19
63500;BME280;49654;51.142;14.924;2023-04-07T09:49:16;99309.41;;;12.68;39.63
63500;BME280;49654;51.142;14.924;2023-04-07T09:51:52;99331.97;;;12.46;39.27
63500;BME280;49654;51.142;14.924;2023-04-07T09:54:33;99312.34;;;12.43;39.00
63500;BME280;49654;51.142;14.924;2023-04-07T09:57:03;99327.44;;;12.18;40.00
63500;BME280;49654;51.142;14.924;2023-04-07T09:59:32;99309.56;;;12.15;40.35
63500;BME280;49654;51.142;14.924;2023-04-07T10:01:59;99268.00;;;12.07;40.07
63500;BME280;49654;51.142;14.924;2023-04-07T10:04:26;99290.50;;;11.41;39.67
63500;BME280;49654;51.142;14.924;2023-04-07T10:06:54;99253.78;;;11.21;41.93
63500;BME280;49654;51.142;14.924;2023-04-07T10:09:22;99322.66;;;12.37;41.35
63500;BME280;49654;51.142;14.924;2023-04-07T10:11:51;99303.66;;;12.58;40.72
63500;BME280;49654;51.142;14.924;2023-04-07T10:14:21;99226.22;;;12.09;40.99
63500;BME280;49654;51.142;14.924;2023-04-07T10:16:48;99232.97;;;11.88;41.55
63500;BME280;49654;51.142;14.924;2023-04-07T10:19:18;99274.25;;;12.42;41.92
63500;BME280;49654;51.142;14.924;2023-04-07T10:21:48;99235.25;;;12.49;41.61
63500;BME280;49654;51.142;14.924;2023-04-07T10:24:29;99264.56;;;12.72;39.52
63500;BME280;49654;51.142;14.924;2023-04-07T10:27:03;99214.66;;;12.54;39.87
63500;BME280;49654;51.142;14.924;2023-04-07T10:29:37;99291.63;;;12.57;39.04
63500;BME280;49654;51.142;14.924;2023-04-07T10:32:06;99215.19;;;12.28;40.62
63500;BME280;49654;51.142;14.924;2023-04-07T10:34:55;99326.59;;;13.05;39.53
63500;BME280;49654;51.142;14.924;2023-04-07T10:37:23;99298.97;;;12.68;40.27
63500;BME280;49654;51.142;14.924;2023-04-07T10:40:25;99316.03;;;12.92;40.20
63500;BME280;49654;51.142;14.924;2023-04-07T10:42:45;99291.19;;;12.53;41.15
63500;BME280;49654;51.142;14.924;2023-04-07T10:45:14;99277.28;;;12.10;41.19
63500;BME280;49654;51.142;14.924;2023-04-07T10:50:40;99289.63;;;12.22;41.25
63500;BME280;49654;51.142;14.924;2023-04-07T10:53:09;99329.13;;;12.11;42.83
63500;BME280;49654;51.142;14.924;2023-04-07T10:55:38;99293.59;;;11.89;42.15
63500;BME280;49654;51.142;14.924;2023-04-07T10:58:29;99323.13;;;12.25;41.18
63500;BME280;49654;51.142;14.924;2023-04-07T11:01:18;99266.50;;;12.13;41.04
63500;BME280;49654;51.142;14.924;2023-04-07T11:03:54;99301.66;;;12.23;41.21
63500;BME280;49654;51.142;14.924;2023-04-07T11:06:21;99226.66;;;11.53;41.76
63500;BME280;49654;51.142;14.924;2023-04-07T11:08:49;99233.19;;;11.64;41.57
63500;BME280;49654;51.142;14.924;2023-04-07T11:11:20;99305.94;;;11.57;41.27
63500;BME280;49654;51.142;14.924;2023-04-07T11:14:00;99248.50;;;11.29;41.79
63500;BME280;49654;51.142;14.924;2023-04-07T11:16:35;99218.56;;;10.95;42.33
63500;BME280;49654;51.142;14.924;2023-04-07T11:22:58;99220.09;;;10.44;42.27
63500;BME280;49654;51.142;14.924;2023-04-07T11:25:47;99264.31;;;11.42;42.23
63500;BME280;49654;51.142;14.924;2023-04-07T11:28:15;99297.03;;;12.04;39.71
63500;BME280;49654;51.142;14.924;2023-04-07T11:30:48;99237.72;;;11.99;40.54
63500;BME280;49654;51.142;14.924;2023-04-07T11:33:19;99281.63;;;12.24;39.92
63500;BME280;49654;51.142;14.924;2023-04-07T11:35:52;99296.81;;;11.61;40.14
63500;BME280;49654;51.142;14.924;2023-04-07T11:38:21;99222.41;;;10.85;41.50
63500;BME280;49654;51.142;14.924;2023-04-07T11:40:48;99269.75;;;10.95;41.72
63500;BME280;49654;51.142;14.924;2023-04-07T11:43:19;99296.28;;;10.59;41.58
63500;BME280;49654;51.142;14.924;2023-04-07T11:46:04;99245.09;;;10.68;42.83
63500;BME280;49654;51.142;14.924;2023-04-07T11:48:34;99198.22;;;11.37;42.33
63500;BME280;49654;51.142;14.924;2023-04-07T11:51:02;99314.97;;;12.65;40.96
63500;BME280;49654;51.142;14.924;2023-04-07T11:53:30;99309.09;;;12.77;40.25
63500;BME280;49654;51.142;14.924;2023-04-07T11:56:02;99316.78;;;12.13;40.05
63500;BME280;49654;51.142;14.924;2023-04-07T11:58:29;99292.06;;;12.24;40.91
63500;BME280;49654;51.142;14.924;2023-04-07T12:00:57;99233.22;;;12.08;41.25
63500;BME280;49654;51.142;14.924;2023-04-07T12:03:28;99309.38;;;12.32;40.57
63500;BME280;49654;51.142;14.924;2023-04-07T12:05:56;99250.94;;;12.19;40.43
63500;BME280;49654;51.142;14.924;2023-04-07T12:08:36;99273.13;;;12.15;40.30
63500;BME280;49654;51.142;14.924;2023-04-07T12:11:03;99281.84;;;11.78;41.96
63500;BME280;49654;51.142;14.924;2023-04-07T12:13:30;99242.31;;;11.83;42.75
63500;BME280;49654;51.142;14.924;2023-04-07T12:15:57;99316.19;;;12.33;40.57
63500;BME280;49654;51.142;14.924;2023-04-07T12:18:25;99296.84;;;12.57;40.44
63500;BME280;49654;51.142;14.924;2023-04-07T12:20:53;99282.28;;;11.52;42.15
63500;BME280;49654;51.142;14.924;2023-04-07T12:23:21;99319.00;;;12.01;41.06
63500;BME280;49654;51.142;14.924;2023-04-07T12:25:48;99270.25;;;11.13;43.77
63500;BME280;49654;51.142;14.924;2023-04-07T12:28:15;99323.59;;;11.99;42.97
63500;BME280;49654;51.142;14.924;2023-04-07T12:30:42;99318.34;;;12.44;42.67
63500;BME280;49654;51.142;14.924;2023-04-07T12:33:09;99317.28;;;11.94;41.14
63500;BME280;49654;51.142;14.924;2023-04-07T12:35:36;99284.34;;;11.71;42.02
63500;BME280;49654;51.142;14.924;2023-04-07T12:38:05;99192.28;;;11.72;41.51
63500;BME280;49654;51.142;14.924;2023-04-07T12:40:34;99291.78;;;12.34;41.95
63500;BME280;49654;51.142;14.924;2023-04-07T12:43:02;99276.22;;;12.40;40.85
63500;BME280;49654;51.142;14.924;2023-04-07T12:45:29;99270.63;;;12.79;40.53
63500;BME280;49654;51.142;14.924;2023-04-07T12:47:57;99246.13;;;12.74;41.28
63500;BME280;49654;51.142;14.924;2023-04-07T12:50:24;99233.25;;;12.30;40.92
63500;BME280;49654;51.142;14.924;2023-04-07T12:52:51;99240.97;;;12.59;40.79
63500;BME280;49654;51.142;14.924;2023-04-07T12:55:19;99247.47;;;12.70;40.77
63500;BME280;49654;51.142;14.924;2023-04-07T12:57:48;99313.88;;;13.17;40.01
63500;BME280;49654;51.142;14.924;2023-04-07T13:00:15;99308.06;;;12.21;39.66
63500;BME280;49654;51.142;14.924;2023-04-07T13:02:42;99307.84;;;12.37;42.30
63500;BME280;49654;51.142;14.924;2023-04-07T13:05:09;99294.84;;;12.59;42.65
63500;BME280;49654;51.142;14.924;2023-04-07T13:07:37;99303.31;;;12.46;42.59
63500;BME280;49654;51.142;14.924;2023-04-07T13:10:05;99273.91;;;12.31;43.29
63500;BME280;49654;51.142;14.924;2023-04-07T13:12:34;99289.22;;;12.55;43.81